createdAt,value
2022-09-28T00:01:10.061Z,99341.53
2022-09-28T00:03:39.369Z,99344.13
2022-09-28T00:06:08.918Z,99334.13
2022-09-28T00:08:37.398Z,99336.25
2022-09-28T00:11:07.067Z,99341.56
2022-09-28T00:13:35.782Z,99337.44
2022-09-28T00:16:04.935Z,99328.34
2022-09-28T00:18:33.270Z,99327.41
2022-09-28T00:21:04.792Z,99333.81
2022-09-28T00:23:33.239Z,99325.88
2022-09-28T00:26:05.341Z,99324.31
2022-09-28T00:28:33.622Z,99323.63
2022-09-28T00:31:01.806Z,99328.03
2022-09-28T00:33:29.942Z,99324.03
2022-09-28T00:35:58.630Z,99315.38
2022-09-28T00:38:30.944Z,99314.38
2022-09-28T00:40:59.685Z,99316.13
2022-09-28T00:43:28.091Z,99307.44
2022-09-28T00:45:59.661Z,99313.81
2022-09-28T00:48:29.421Z,99306.97
2022-09-28T00:50:58.095Z,99309.56
2022-09-28T00:53:28.234Z,99310.13
2022-09-28T00:56:00.462Z,99308.53
2022-09-28T00:58:29.946Z,99309.53
2022-09-28T01:00:59.022Z,99304.19
2022-09-28T01:03:27.830Z,99303.66
2022-09-28T01:05:56.842Z,99303.19
2022-09-28T01:08:25.395Z,99302.78
2022-09-28T01:10:53.346Z,99302.84
2022-09-28T01:13:23.149Z,99301.44
2022-09-28T01:15:57.918Z,99299.47
2022-09-28T01:18:33.635Z,99293.91
2022-09-28T01:21:03.464Z,99295.59
2022-09-28T01:24:10.380Z,99296.63
2022-09-28T01:26:48.998Z,99298.50
2022-09-28T01:29:20.828Z,99299.59
2022-09-28T01:31:52.778Z,99294.78
2022-09-28T01:34:25.766Z,99299.94
2022-09-28T01:36:56.768Z,99294.38
2022-09-28T01:39:29.460Z,99294.03
2022-09-28T01:42:02.133Z,99289.56
2022-09-28T01:44:32.237Z,99293.56
2022-09-28T01:47:04.242Z,99286.59
2022-09-28T01:49:35.536Z,99288.88
2022-09-28T01:52:05.917Z,99280.22
2022-09-28T01:54:38.890Z,99281.41
2022-09-28T01:57:10.974Z,99281.31
2022-09-28T01:59:40.637Z,99275.75
2022-09-28T02:02:12.926Z,99273.22
2022-09-28T02:04:45.274Z,99272.44
2022-09-28T02:07:15.265Z,99277.47
2022-09-28T02:09:47.659Z,99275.31
2022-09-28T02:12:24.454Z,99278.22
2022-09-28T02:14:54.139Z,99275.03
2022-09-28T02:17:22.214Z,99276.16
2022-09-28T02:19:50.332Z,99273.31
2022-09-28T02:22:25.140Z,99274.34
2022-09-28T02:24:56.511Z,99272.63
2022-09-28T02:27:33.174Z,99275.88
2022-09-28T02:30:01.078Z,99265.28
2022-09-28T02:32:29.578Z,99275.88
2022-09-28T02:34:57.514Z,99267.25
2022-09-28T02:37:25.508Z,99270.94
2022-09-28T02:39:53.399Z,99266.56
2022-09-28T02:42:23.638Z,99271.63
2022-09-28T02:45:02.046Z,99268.38
2022-09-28T02:47:43.322Z,99266.41
2022-09-28T02:50:17.430Z,99273.06
2022-09-28T02:53:01.097Z,99270.50
2022-09-28T02:55:38.998Z,99269.34
2022-09-28T02:58:22.955Z,99264.72
2022-09-28T03:00:58.478Z,99264.69
2022-09-28T03:03:33.832Z,99268.78
2022-09-28T03:06:04.710Z,99267.69
2022-09-28T03:08:36.199Z,99272.06
2022-09-28T03:11:05.955Z,99267.75
2022-09-28T03:13:34.685Z,99268.78
2022-09-28T03:16:12.154Z,99261.69
2022-09-28T03:18:40.524Z,99263.41
2022-09-28T03:21:09.034Z,99265.81
2022-09-28T03:23:36.999Z,99259.31
2022-09-28T03:26:05.260Z,99255.50
2022-09-28T03:28:34.662Z,99247.72
2022-09-28T03:31:02.693Z,99263.94
2022-09-28T03:33:32.108Z,99267.47
2022-09-28T03:36:00.226Z,99262.97
2022-09-28T03:38:28.166Z,99258.16
2022-09-28T03:40:56.694Z,99254.66
2022-09-28T03:43:25.126Z,99248.44
2022-09-28T03:45:54.607Z,99253.94
2022-09-28T03:48:27.608Z,99255.78
2022-09-28T03:51:00.957Z,99260.09
2022-09-28T03:53:29.692Z,99266.75
2022-09-28T03:55:58.030Z,99263.25
2022-09-28T03:58:25.922Z,99261.84
2022-09-28T04:00:53.910Z,99263.56
2022-09-28T04:03:21.966Z,99256.84
2022-09-28T04:05:50.387Z,99262.69
2022-09-28T04:08:19.878Z,99259.59
2022-09-28T04:10:47.981Z,99252.66
2022-09-28T04:13:15.845Z,99255.31
2022-09-28T04:15:44.250Z,99259.00
2022-09-28T04:18:13.582Z,99257.31
2022-09-28T04:20:45.429Z,99255.47
2022-09-28T04:23:13.582Z,99256.16
2022-09-28T04:25:45.876Z,99253.09
2022-09-28T04:28:30.966Z,99250.81
2022-09-28T04:30:58.882Z,99250.28
2022-09-28T04:33:26.853Z,99251.97
2022-09-28T04:35:54.907Z,99251.78
2022-09-28T04:38:35.845Z,99254.78
2022-09-28T04:41:12.474Z,99268.03
2022-09-28T04:43:40.462Z,99261.72
2022-09-28T04:46:08.433Z,99264.69
2022-09-28T04:48:36.602Z,99266.78
2022-09-28T04:51:04.738Z,99265.41
2022-09-28T04:53:33.031Z,99271.78
2022-09-28T04:56:02.605Z,99262.03
2022-09-28T04:58:32.341Z,99266.47
2022-09-28T05:01:01.678Z,99261.50
2022-09-28T05:03:30.042Z,99257.13
2022-09-28T05:05:57.962Z,99260.84
2022-09-28T05:08:26.322Z,99251.25
2022-09-28T05:10:58.969Z,99252.13
2022-09-28T05:13:26.969Z,99259.44
2022-09-28T05:16:00.654Z,99256.53
2022-09-28T05:18:31.066Z,99252.09
2022-09-28T05:20:59.018Z,99260.28
2022-09-28T05:23:26.901Z,99255.19
2022-09-28T05:25:55.010Z,99262.81
2022-09-28T05:28:26.336Z,99248.53
2022-09-28T05:30:54.402Z,99252.63
2022-09-28T05:33:23.670Z,99251.28
2022-09-28T05:35:55.101Z,99257.34
2022-09-28T05:38:24.904Z,99259.69
2022-09-28T05:40:52.887Z,99258.44
2022-09-28T05:43:20.847Z,99259.13
2022-09-28T05:45:54.312Z,99254.50
2022-09-28T05:48:24.781Z,99253.25
2022-09-28T05:50:53.010Z,99252.66
2022-09-28T05:53:21.229Z,99248.84
2022-09-28T05:55:49.243Z,99249.81
2022-09-28T05:58:17.422Z,99249.44
2022-09-28T06:00:45.467Z,99251.84
2022-09-28T06:03:15.151Z,99249.69
2022-09-28T06:05:45.325Z,99246.56
2022-09-28T06:08:13.222Z,99249.84
2022-09-28T06:10:41.586Z,99253.78
2022-09-28T06:13:10.489Z,99261.56
2022-09-28T06:15:39.133Z,99259.00
2022-09-28T06:18:08.713Z,99251.50
2022-09-28T06:20:38.426Z,99256.31
2022-09-28T06:23:07.758Z,99253.34
2022-09-28T06:25:35.800Z,99254.94
2022-09-28T06:28:05.454Z,99264.16
2022-09-28T06:30:35.413Z,99270.59
2022-09-28T06:33:03.777Z,99265.13
2022-09-28T06:35:32.978Z,99271.34
2022-09-28T06:38:01.687Z,99275.75
2022-09-28T06:40:31.063Z,99267.81
2022-09-28T06:43:00.182Z,99282.94
2022-09-28T06:45:29.485Z,99287.59
2022-09-28T06:47:58.530Z,99289.75
2022-09-28T06:50:26.732Z,99288.59
2022-09-28T06:52:55.178Z,99285.34
2022-09-28T06:55:23.354Z,99300.22
2022-09-28T06:58:00.566Z,99299.31
2022-09-28T07:00:28.784Z,99301.59
2022-09-28T07:02:56.821Z,99301.72
2022-09-28T07:05:27.202Z,99307.56
2022-09-28T07:07:56.293Z,99299.28
2022-09-28T07:10:24.560Z,99295.50
2022-09-28T07:12:52.865Z,99300.44
2022-09-28T07:15:22.726Z,99310.63
2022-09-28T07:18:00.081Z,99313.19
2022-09-28T07:20:29.906Z,99313.88
2022-09-28T07:23:08.341Z,99310.34
2022-09-28T07:25:44.450Z,99314.72
2022-09-28T07:28:12.766Z,99309.88
2022-09-28T07:30:43.478Z,99311.16
2022-09-28T07:33:14.654Z,99315.06
2022-09-28T07:35:43.332Z,99311.03
2022-09-28T07:38:12.429Z,99315.44
2022-09-28T07:40:57.807Z,99315.38
2022-09-28T07:43:25.730Z,99318.47
2022-09-28T07:45:55.774Z,99313.28
2022-09-28T07:48:23.928Z,99321.59
2022-09-28T07:50:52.786Z,99321.66
2022-09-28T07:53:21.212Z,99322.09
2022-09-28T07:55:52.364Z,99327.19
2022-09-28T07:58:20.868Z,99326.56
2022-09-28T08:00:49.165Z,99328.72
2022-09-28T08:03:19.599Z,99327.47
2022-09-28T08:05:48.148Z,99329.75
2022-09-28T08:08:16.594Z,99337.88
2022-09-28T08:10:47.251Z,99330.09
2022-09-28T08:13:16.700Z,99337.22
2022-09-28T08:15:45.150Z,99340.28
2022-09-28T08:18:13.055Z,99339.22
2022-09-28T08:20:59.908Z,99352.56
2022-09-28T08:23:27.797Z,99346.72
2022-09-28T08:25:55.886Z,99356.28
2022-09-28T08:28:24.712Z,99358.97
2022-09-28T08:30:53.264Z,99356.66
2022-09-28T08:33:22.346Z,99358.88
2022-09-28T08:35:57.500Z,99362.06
2022-09-28T08:38:25.672Z,99363.09
2022-09-28T08:41:11.202Z,99368.81
2022-09-28T08:43:51.218Z,99374.25
2022-09-28T08:46:23.891Z,99375.38
2022-09-28T08:49:23.896Z,99375.88
2022-09-28T08:51:54.374Z,99372.56
2022-09-28T08:54:32.057Z,99379.09
2022-09-28T08:57:03.179Z,99384.91
2022-09-28T08:59:41.785Z,99382.38
2022-09-28T09:02:16.321Z,99383.31
2022-09-28T09:04:44.626Z,99384.84
2022-09-28T09:07:27.532Z,99391.59
2022-09-28T09:10:04.173Z,99386.50
2022-09-28T09:12:37.471Z,99394.16
2022-09-28T09:15:22.848Z,99399.81
2022-09-28T09:17:59.881Z,99399.03
2022-09-28T09:20:37.118Z,99399.16
2022-09-28T09:23:14.134Z,99390.00
2022-09-28T09:25:43.493Z,99390.50
2022-09-28T09:28:35.327Z,99394.13
2022-09-28T09:31:09.797Z,99396.84
2022-09-28T09:33:54.930Z,99402.47
2022-09-28T09:36:38.209Z,99410.03
2022-09-28T09:39:19.779Z,99405.53
2022-09-28T09:41:58.571Z,99404.47
2022-09-28T09:44:41.361Z,99409.63
2022-09-28T09:47:13.522Z,99404.47
2022-09-28T09:49:44.132Z,99409.47
2022-09-28T09:52:15.380Z,99417.22
2022-09-28T09:54:49.091Z,99414.50
2022-09-28T09:57:19.743Z,99410.97
2022-09-28T09:59:49.421Z,99417.91
2022-09-28T10:02:24.710Z,99418.56
2022-09-28T10:04:55.285Z,99420.50
2022-09-28T10:07:26.473Z,99422.06
2022-09-28T10:09:58.628Z,99417.50
2022-09-28T10:12:27.107Z,99419.47
2022-09-28T10:14:56.106Z,99426.03
2022-09-28T10:17:27.361Z,99415.88
2022-09-28T10:19:56.990Z,99427.22
2022-09-28T10:22:27.563Z,99423.66
2022-09-28T10:24:58.502Z,99420.63
2022-09-28T10:27:29.456Z,99427.06
2022-09-28T10:29:59.851Z,99428.41
2022-09-28T10:32:37.207Z,99424.88
2022-09-28T10:35:22.630Z,99427.56
2022-09-28T10:37:54.284Z,99425.38
2022-09-28T10:40:43.534Z,99430.97
2022-09-28T10:43:20.343Z,99438.16
2022-09-28T10:45:48.441Z,99429.25
2022-09-28T10:48:20.511Z,99431.44
2022-09-28T10:51:00.401Z,99431.44
2022-09-28T10:53:28.346Z,99430.09
2022-09-28T10:56:02.717Z,99424.50
2022-09-28T10:58:36.297Z,99428.25
2022-09-28T11:01:09.207Z,99425.69
2022-09-28T11:03:42.417Z,99431.59
2022-09-28T11:06:10.392Z,99432.34
2022-09-28T11:08:40.202Z,99435.53
2022-09-28T11:11:11.905Z,99427.63
2022-09-28T11:13:47.153Z,99439.19
2022-09-28T11:16:21.609Z,99449.34
2022-09-28T11:18:49.583Z,99441.78
2022-09-28T11:21:19.822Z,99441.97
2022-09-28T11:24:01.288Z,99441.50
2022-09-28T11:26:36.679Z,99438.53
2022-09-28T11:29:04.834Z,99434.41
2022-09-28T11:31:34.438Z,99435.97
2022-09-28T11:34:05.233Z,99433.16
2022-09-28T11:36:46.452Z,99448.00
2022-09-28T11:39:20.292Z,99437.59
2022-09-28T11:41:59.192Z,99442.97
2022-09-28T11:44:39.479Z,99446.50
2022-09-28T11:47:36.542Z,99450.25
2022-09-28T11:50:08.286Z,99441.66
2022-09-28T11:52:42.718Z,99446.84
2022-09-28T11:55:14.993Z,99455.84
2022-09-28T11:57:46.603Z,99446.91
2022-09-28T12:00:16.796Z,99451.53
2022-09-28T12:02:49.354Z,99458.75
2022-09-28T12:05:22.963Z,99455.19
2022-09-28T12:07:54.430Z,99456.25
2022-09-28T12:10:31.314Z,99460.38
2022-09-28T12:13:02.502Z,99455.56
2022-09-28T12:16:10.319Z,99456.53
2022-09-28T12:18:36.262Z,99463.13
2022-09-28T12:21:11.862Z,99459.13
2022-09-28T12:23:42.068Z,99463.25
2022-09-28T12:26:21.953Z,99456.94
2022-09-28T12:28:52.006Z,99460.38
2022-09-28T12:31:24.753Z,99459.84
2022-09-28T12:33:53.081Z,99464.69
2022-09-28T12:36:32.609Z,99466.28
2022-09-28T12:39:35.824Z,99462.44
2022-09-28T12:42:17.350Z,99460.28
2022-09-28T12:45:03.033Z,99470.94
2022-09-28T12:48:03.320Z,99473.16
2022-09-28T12:50:40.685Z,99462.50
2022-09-28T12:53:28.005Z,99474.16
2022-09-28T12:55:59.288Z,99468.03
2022-09-28T12:58:44.789Z,99476.47
2022-09-28T13:01:36.206Z,99480.03
2022-09-28T13:04:19.355Z,99470.41
2022-09-28T13:07:04.099Z,99476.78
2022-09-28T13:09:37.237Z,99476.94
2022-09-28T13:12:19.891Z,99475.13
2022-09-28T13:15:10.573Z,99469.16
2022-09-28T13:17:47.881Z,99469.78
2022-09-28T13:20:25.680Z,99474.31
2022-09-28T13:22:57.241Z,99471.25
2022-09-28T13:25:28.626Z,99473.72
2022-09-28T13:27:59.646Z,99471.19
2022-09-28T13:30:27.899Z,99477.91
2022-09-28T13:32:58.538Z,99474.53
2022-09-28T13:35:26.593Z,99480.38
2022-09-28T13:38:31.569Z,99477.94
2022-09-28T13:41:19.052Z,99482.63
2022-09-28T13:44:13.148Z,99483.81
2022-09-28T13:46:46.521Z,99483.03
2022-09-28T13:49:20.411Z,99481.50
2022-09-28T13:51:58.201Z,99480.69
2022-09-28T13:54:41.393Z,99485.72
2022-09-28T13:57:19.723Z,99486.78
2022-09-28T13:59:55.937Z,99490.84
2022-09-28T14:02:32.616Z,99494.03
2022-09-28T14:05:04.048Z,99498.59
2022-09-28T14:07:59.808Z,99492.75
2022-09-28T14:10:51.697Z,99492.59
2022-09-28T14:13:57.045Z,99499.25
2022-09-28T14:16:26.862Z,99493.31
2022-09-28T14:18:57.193Z,99500.94
2022-09-28T14:22:02.202Z,99495.00
2022-09-28T14:24:40.054Z,99491.25
2022-09-28T14:27:29.003Z,99491.66
2022-09-28T14:30:08.703Z,99483.75
2022-09-28T14:32:37.550Z,99488.38
2022-09-28T14:35:07.122Z,99497.72
2022-09-28T14:37:55.230Z,99495.75
2022-09-28T14:40:45.930Z,99497.13
2022-09-28T14:43:28.858Z,99498.81
2022-09-28T14:46:45.661Z,99500.28
2022-09-28T14:49:45.006Z,99495.97
2022-09-28T14:52:13.873Z,99499.94
2022-09-28T14:54:54.280Z,99503.94
2022-09-28T14:57:25.773Z,99501.22
2022-09-28T14:59:54.043Z,99500.25
2022-09-28T15:02:26.546Z,99512.69
2022-09-28T15:04:56.391Z,99513.03
2022-09-28T15:07:27.226Z,99503.00
2022-09-28T15:09:57.748Z,99514.47
2022-09-28T15:12:29.702Z,99514.28
2022-09-28T15:14:59.713Z,99508.22
2022-09-28T15:17:28.801Z,99514.38
2022-09-28T15:20:18.308Z,99520.06
2022-09-28T15:22:46.982Z,99515.16
2022-09-28T15:25:19.861Z,99518.56
2022-09-28T15:27:54.115Z,99513.69
2022-09-28T15:30:25.578Z,99514.13
2022-09-28T15:32:56.628Z,99524.81
2022-09-28T15:35:26.375Z,99531.19
2022-09-28T15:37:55.560Z,99526.84
2022-09-28T15:40:32.290Z,99529.00
2022-09-28T15:43:00.719Z,99527.16
2022-09-28T15:45:30.879Z,99530.81
2022-09-28T15:48:21.328Z,99527.22
2022-09-28T15:50:58.666Z,99522.13
2022-09-28T15:53:26.709Z,99527.78
2022-09-28T15:56:01.442Z,99526.72
2022-09-28T15:58:29.742Z,99535.13
2022-09-28T16:01:36.684Z,99536.25
2022-09-28T16:04:33.953Z,99533.44
2022-09-28T16:07:26.414Z,99539.81
2022-09-28T16:09:59.766Z,99539.66
2022-09-28T16:12:32.486Z,99543.56
2022-09-28T16:15:05.212Z,99543.06
2022-09-28T16:17:35.272Z,99549.47
2022-09-28T16:20:05.569Z,99545.69
2022-09-28T16:22:33.710Z,99541.94
2022-09-28T16:25:02.191Z,99542.28
2022-09-28T16:27:40.942Z,99547.69
2022-09-28T16:30:20.178Z,99540.28
2022-09-28T16:32:52.175Z,99548.63
2022-09-28T16:35:25.510Z,99543.69
2022-09-28T16:38:11.429Z,99551.19
2022-09-28T16:40:41.042Z,99542.19
2022-09-28T16:43:13.847Z,99548.81
2022-09-28T16:45:41.768Z,99552.84
2022-09-28T16:48:10.947Z,99553.72
2022-09-28T16:50:38.874Z,99551.88
2022-09-28T16:53:32.296Z,99548.03
2022-09-28T16:56:00.735Z,99549.03
2022-09-28T16:58:31.342Z,99551.94
2022-09-28T17:00:59.540Z,99548.72
2022-09-28T17:03:28.640Z,99557.16
2022-09-28T17:05:56.748Z,99556.81
2022-09-28T17:08:26.066Z,99559.69
2022-09-28T17:11:14.016Z,99568.47
2022-09-28T17:13:45.871Z,99566.63
2022-09-28T17:16:15.717Z,99559.84
2022-09-28T17:18:43.718Z,99563.84
2022-09-28T17:21:13.446Z,99572.81
2022-09-28T17:23:41.346Z,99562.69
2022-09-28T17:26:09.907Z,99563.44
2022-09-28T17:28:38.157Z,99568.00
2022-09-28T17:31:08.479Z,99565.94
2022-09-28T17:33:36.386Z,99574.34
2022-09-28T17:36:05.611Z,99568.09
2022-09-28T17:38:34.657Z,99566.19
2022-09-28T17:41:02.654Z,99570.75
2022-09-28T17:43:30.654Z,99570.25
2022-09-28T17:45:59.239Z,99571.44
2022-09-28T17:48:28.610Z,99572.09
2022-09-28T17:50:56.473Z,99571.56
2022-09-28T17:53:24.764Z,99572.75
2022-09-28T17:55:52.835Z,99578.81
2022-09-28T17:58:21.975Z,99586.13
2022-09-28T18:00:52.358Z,99581.41
2022-09-28T18:03:21.960Z,99579.84
2022-09-28T18:05:59.484Z,99588.56
2022-09-28T18:08:27.533Z,99578.59
2022-09-28T18:10:56.798Z,99580.66
2022-09-28T18:13:24.829Z,99582.84
2022-09-28T18:15:52.915Z,99586.63
2022-09-28T18:18:20.897Z,99586.94
2022-09-28T18:20:48.914Z,99596.78
2022-09-28T18:23:18.342Z,99600.69
2022-09-28T18:25:46.845Z,99595.47
2022-09-28T18:28:15.469Z,99593.56
2022-09-28T18:30:44.915Z,99597.31
2022-09-28T18:33:13.871Z,99597.72
2022-09-28T18:35:42.222Z,99594.44
2022-09-28T18:38:10.129Z,99599.38
2022-09-28T18:40:39.521Z,99602.22
2022-09-28T18:43:07.398Z,99607.66
2022-09-28T18:45:35.814Z,99605.41
2022-09-28T18:48:03.735Z,99605.22
2022-09-28T18:50:31.761Z,99614.69
2022-09-28T18:53:11.488Z,99604.59
2022-09-28T18:55:41.539Z,99612.56
2022-09-28T18:58:10.672Z,99620.75
2022-09-28T19:00:40.122Z,99614.72
2022-09-28T19:03:08.399Z,99628.41
2022-09-28T19:05:36.369Z,99625.22
2022-09-28T19:08:04.236Z,99628.84
2022-09-28T19:10:32.141Z,99638.03
2022-09-28T19:13:01.462Z,99626.63
2022-09-28T19:15:29.538Z,99637.34
2022-09-28T19:17:58.102Z,99628.69
2022-09-28T19:20:26.095Z,99642.97
2022-09-28T19:22:53.969Z,99646.28
2022-09-28T19:25:21.869Z,99641.66
2022-09-28T19:27:49.751Z,99642.91
2022-09-28T19:30:19.360Z,99651.91
2022-09-28T19:32:47.246Z,99654.41
2022-09-28T19:35:15.145Z,99654.25
2022-09-28T19:37:46.650Z,99655.63
2022-09-28T19:40:14.553Z,99653.84
2022-09-28T19:42:42.450Z,99656.41
2022-09-28T19:45:10.930Z,99662.72
2022-09-28T19:47:40.263Z,99666.63
2022-09-28T19:50:10.225Z,99672.06
2022-09-28T19:52:38.117Z,99668.16
2022-09-28T19:55:06.761Z,99664.50
2022-09-28T19:57:35.077Z,99671.78
2022-09-28T20:00:03.989Z,99670.75
2022-09-28T20:02:32.113Z,99676.28
2022-09-28T20:05:01.473Z,99680.69
2022-09-28T20:07:32.856Z,99674.59
2022-09-28T20:10:02.251Z,99672.22
2022-09-28T20:12:30.198Z,99676.25
2022-09-28T20:14:58.061Z,99678.09
2022-09-28T20:17:26.029Z,99679.25
2022-09-28T20:19:53.929Z,99681.84
2022-09-28T20:22:23.197Z,99683.38
2022-09-28T20:24:51.262Z,99680.84
2022-09-28T20:27:22.015Z,99688.38
2022-09-28T20:29:52.181Z,99682.34
2022-09-28T20:32:20.082Z,99682.19
2022-09-28T20:34:48.128Z,99686.97
2022-09-28T20:37:17.550Z,99697.28
2022-09-28T20:39:46.937Z,99692.34
2022-09-28T20:42:15.822Z,99688.13
2022-09-28T20:44:44.045Z,99689.69
2022-09-28T20:47:12.111Z,99697.56
2022-09-28T20:49:40.026Z,99689.78
2022-09-28T20:52:07.944Z,99688.81
2022-09-28T20:54:35.918Z,99690.13
2022-09-28T20:57:17.289Z,99694.88
2022-09-28T20:59:45.235Z,99700.72
2022-09-28T21:02:13.902Z,99703.72
2022-09-28T21:04:41.990Z,99704.03
2022-09-28T21:07:10.289Z,99703.47
2022-09-28T21:09:38.414Z,99703.91
2022-09-28T21:12:09.210Z,99698.47
2022-09-28T21:14:37.102Z,99694.22
2022-09-28T21:17:04.979Z,99702.59
2022-09-28T21:19:32.896Z,99705.28
2022-09-28T21:22:00.790Z,99705.72
2022-09-28T21:24:28.692Z,99706.00
2022-09-28T21:26:56.626Z,99695.63
2022-09-28T21:29:26.279Z,99693.59
2022-09-28T21:31:54.148Z,99696.47
2022-09-28T21:34:22.434Z,99702.31
2022-09-28T21:36:51.347Z,99711.09
2022-09-28T21:39:20.298Z,99708.53
2022-09-28T21:41:48.164Z,99709.56
2022-09-28T21:44:16.031Z,99713.81
2022-09-28T21:46:45.476Z,99712.41
2022-09-28T21:49:14.429Z,99720.06
2022-09-28T21:51:42.353Z,99720.34
2022-09-28T21:54:11.929Z,99724.19
2022-09-28T21:56:39.901Z,99727.00
2022-09-28T21:59:07.776Z,99729.28
2022-09-28T22:01:35.746Z,99725.88
2022-09-28T22:04:05.060Z,99718.63
2022-09-28T22:06:33.108Z,99721.34
2022-09-28T22:09:01.094Z,99729.69
2022-09-28T22:11:29.872Z,99724.19
2022-09-28T22:13:59.066Z,99726.19
2022-09-28T22:16:28.423Z,99720.94
2022-09-28T22:18:56.469Z,99721.06
2022-09-28T22:21:27.442Z,99720.06
2022-09-28T22:23:55.437Z,99722.75
2022-09-28T22:26:24.788Z,99715.78
2022-09-28T22:28:54.251Z,99726.47
2022-09-28T22:31:24.267Z,99724.44
2022-09-28T22:33:52.282Z,99730.84
2022-09-28T22:36:20.295Z,99730.28
2022-09-28T22:38:50.227Z,99733.97
2022-09-28T22:41:20.922Z,99737.09
2022-09-28T22:43:49.924Z,99736.22
2022-09-28T22:46:20.103Z,99736.34
2022-09-28T22:48:48.952Z,99742.44
2022-09-28T22:51:17.426Z,99737.06
2022-09-28T22:53:45.662Z,99739.16
2022-09-28T22:56:18.641Z,99742.44
2022-09-28T22:58:48.008Z,99747.22
2022-09-28T23:01:18.550Z,99739.75
2022-09-28T23:03:47.067Z,99739.44
2022-09-28T23:06:16.576Z,99747.34
2022-09-28T23:08:45.554Z,99749.06
2022-09-28T23:11:15.557Z,99740.88
2022-09-28T23:13:43.743Z,99741.69
2022-09-28T23:16:13.185Z,99742.16
2022-09-28T23:18:42.020Z,99742.44
2022-09-28T23:21:15.325Z,99731.94
2022-09-28T23:23:43.581Z,99735.19
2022-09-28T23:26:14.970Z,99737.59
2022-09-28T23:28:42.966Z,99736.47
2022-09-28T23:31:11.657Z,99738.59
2022-09-28T23:33:39.674Z,99739.44
2022-09-28T23:36:08.365Z,99745.34
2022-09-28T23:38:36.329Z,99738.13
2022-09-28T23:41:04.343Z,99745.13
2022-09-28T23:43:33.698Z,99731.34
2022-09-28T23:46:01.814Z,99740.28
2022-09-28T23:48:29.949Z,99741.69
2022-09-28T23:50:57.980Z,99734.63
2022-09-28T23:53:25.950Z,99737.69
2022-09-28T23:55:54.263Z,99738.53
2022-09-28T23:58:22.569Z,99739.41
